Time;durP1;ratioP1;P1;durP2;ratioP2;P2;SDS_P1;SDS_P2;PMS_P1;PMS_P2;Temp;Humidity;BMP_temperature;BMP_pressure;BME280_temperature;BME280_humidity;BME280_pressure;Samples;Min_cycle;Max_cycle;Signal;HPM_P1;HPM_P2
2022/07/20 00:00:47;;;;;;;;;23.25;21.25;;;;;27.58;48.10;100850.72;5058633;28;45924;-59
2022/07/20 00:03:13;;;;;;;;;28.50;25.25;;;;;27.53;46.72;100836.78;5058981;28;45307;-60
2022/07/20 00:05:42;;;;;;;;;33.75;25.75;;;;;27.51;47.57;100859.88;5058996;28;45504;-59
2022/07/20 00:08:09;;;;;;;;;25.75;25.75;;;;;27.43;47.89;100869.00;5051303;28;45429;-59
2022/07/20 00:13:19;;;;;;;;;25.75;25.75;;;;;27.33;48.60;100872.00;5038419;28;45406;-60
2022/07/20 00:15:45;;;;;;;;;29.00;25.75;;;;;27.37;47.54;100864.31;5038972;28;45445;-60
2022/07/20 00:18:11;;;;;;;;;26.00;23.25;;;;;27.32;47.73;100859.41;5046269;28;45194;-62
2022/07/20 00:20:37;;;;;;;;;29.33;27.00;;;;;27.33;47.69;100860.25;5058775;28;46132;-61
2022/07/20 00:23:03;;;;;;;;;22.00;22.00;;;;;27.32;47.27;100900.38;5059942;28;45234;-60
2022/07/20 00:25:29;;;;;;;;;32.00;30.25;;;;;27.29;47.37;100940.88;5059239;28;45401;-59
2022/07/20 00:27:55;;;;;;;;;26.67;24.67;;;;;27.21;48.14;100968.25;5055222;28;45453;-58
2022/07/20 00:30:21;;;;;;;;;25.50;23.25;;;;;27.21;48.35;101007.31;5056081;28;45494;-60
2022/07/20 00:32:47;;;;;;;;;29.00;23.00;;;;;27.18;47.64;101020.50;5058558;28;45513;-60
2022/07/20 00:35:14;;;;;;;;;23.50;22.25;;;;;27.12;48.58;101027.56;5057074;28;45381;-59
2022/07/20 00:37:41;;;;;;;;;23.67;23.67;;;;;27.04;49.04;101033.91;5056598;28;45614;-59
2022/07/20 00:40:09;;;;;;;;;26.50;22.25;;;;;26.98;48.89;101022.84;5053282;28;46055;-59
2022/07/20 00:42:35;;;;;;;;;26.00;24.00;;;;;26.94;48.82;100997.78;5038074;28;45410;-60
2022/07/20 00:45:00;;;;;;;;;26.50;26.50;;;;;26.83;49.78;100970.94;5038391;28;45516;-61
2022/07/20 00:47:26;;;;;;;;;30.67;27.67;;;;;26.74;50.55;100944.75;5037043;28;45567;-59
2022/07/20 00:49:51;;;;;;;;;31.67;27.00;;;;;26.66;51.74;100926.56;5034222;28;45411;-61
2022/07/20 00:52:17;;;;;;;;;29.67;27.00;;;;;26.54;52.55;100928.00;5038044;28;45350;-62
2022/07/20 00:54:45;;;;;;;;;31.33;28.33;;;;;26.48;52.58;100925.16;5038156;28;45440;-59
2022/07/20 00:57:11;;;;;;;;;28.67;26.67;;;;;26.42;53.66;100918.53;5053788;28;45354;-60
2022/07/20 00:59:37;;;;;;;;;33.00;28.00;;;;;26.25;56.03;100906.03;5038006;28;46147;-59
2022/07/20 01:02:02;;;;;;;;;30.00;28.00;;;;;26.06;56.31;100912.81;5037711;28;45307;-59
2022/07/20 01:04:27;;;;;;;;;26.67;26.67;;;;;25.87;57.51;100901.28;5037970;28;45243;-61
2022/07/20 01:06:53;;;;;;;;;39.00;33.33;;;;;25.71;59.89;100881.47;5037877;28;45351;-59
2022/07/20 01:09:18;;;;;;;;;39.33;34.33;;;;;25.71;60.52;100882.31;5038502;28;45238;-59
2022/07/20 01:11:44;;;;;;;;;39.00;34.00;;;;;25.56;61.07;100875.88;5039442;28;45342;-59
2022/07/20 01:14:10;;;;;;;;;32.33;32.00;;;;;25.52;61.92;100866.34;5037593;28;45281;-61
2022/07/20 01:16:37;;;;;;;;;40.67;34.00;;;;;25.51;62.02;100870.09;5038089;28;45490;-61
2022/07/20 01:19:05;;;;;;;;;45.67;39.33;;;;;25.48;62.03;100871.31;5037340;28;46634;-59
2022/07/20 01:21:30;;;;;;;;;45.33;38.00;;;;;25.46;61.79;100877.94;5043322;28;45520;-59
2022/07/20 01:23:56;;;;;;;;;47.00;39.00;;;;;25.52;62.25;100872.66;5057380;28;45308;-59
2022/07/20 01:26:22;;;;;;;;;47.00;38.33;;;;;25.53;61.88;100873.50;5057524;28;45607;-60
2022/07/20 01:28:48;;;;;;;;;47.67;40.00;;;;;25.56;62.00;100868.56;5057299;28;45392;-60
2022/07/20 01:31:14;;;;;;;;;42.33;37.00;;;;;25.58;63.20;100880.13;5071701;27;46221;-59
2022/07/20 01:33:39;;;;;;;;;50.67;42.67;;;;;25.47;63.67;100864.16;5057388;28;45802;-60
2022/07/20 01:36:05;;;;;;;;;58.33;47.00;;;;;25.44;64.01;100852.78;5056887;28;45611;-60
2022/07/20 01:38:31;;;;;;;;;56.33;45.33;;;;;25.34;63.17;100852.13;5057315;28;45747;-60
2022/07/20 01:40:56;;;;;;;;;58.33;47.33;;;;;25.33;64.43;100855.88;5057248;28;45401;-60
2022/07/20 01:43:22;;;;;;;;;53.67;45.33;;;;;25.37;62.58;100852.63;5055913;28;45425;-60
2022/07/20 01:45:47;;;;;;;;;57.33;46.33;;;;;25.41;62.43;100847.69;5056112;28;45565;-59
2022/07/20 01:48:13;;;;;;;;;60.33;48.33;;;;;25.42;62.58;100860.28;5057114;28;46563;-60
2022/07/20 01:50:38;;;;;;;;;57.00;47.67;;;;;25.36;63.27;100880.03;5054499;28;45624;-60
2022/07/20 01:53:05;;;;;;;;;60.00;45.33;;;;;25.35;62.74;100884.63;5056224;28;45387;-61
2022/07/20 01:55:30;;;;;;;;;57.00;45.00;;;;;25.40;62.85;100895.00;5053471;28;45658;-60
2022/07/20 01:57:56;;;;;;;;;58.67;47.00;;;;;25.46;62.50;100899.75;5036656;28;46024;-60
2022/07/20 02:00:22;;;;;;;;;58.67;47.33;;;;;25.48;62.67;100887.63;5052945;28;45179;-60
2022/07/20 02:02:48;;;;;;;;;55.00;45.67;;;;;25.48;62.67;100898.53;5057068;28;45318;-60
2022/07/20 02:05:14;;;;;;;;;56.00;47.00;;;;;25.37;62.75;100909.78;5057075;28;45559;-61
2022/07/20 02:07:39;;;;;;;;;56.00;46.00;;;;;25.47;63.28;100950.44;5056134;28;45484;-59
2022/07/20 02:10:07;;;;;;;;;55.00;44.00;;;;;25.48;61.54;100998.44;5058369;28;45354;-61
2022/07/20 02:12:33;;;;;;;;;60.00;46.67;;;;;25.49;61.55;101003.72;5057721;28;45277;-60
2022/07/20 02:14:58;;;;;;;;;59.00;47.00;;;;;25.47;61.05;100978.53;5057098;28;45319;-62
2022/07/20 02:17:24;;;;;;;;;59.00;48.67;;;;;25.47;62.31;100947.72;5056917;28;46165;-60
2022/07/20 02:19:49;;;;;;;;;60.67;48.33;;;;;25.41;61.91;100943.00;5050227;28;45348;-60
2022/07/20 02:22:14;;;;;;;;;57.33;46.33;;;;;25.49;62.41;100962.00;5051905;28;45747;-60
2022/07/20 02:24:40;;;;;;;;;58.33;48.00;;;;;25.40;61.68;100946.75;5036693;28;45165;-60
2022/07/20 02:27:05;;;;;;;;;57.67;47.00;;;;;25.33;61.98;100935.69;5036606;28;45770;-60
2022/07/20 02:29:31;;;;;;;;;58.33;47.00;;;;;25.41;62.99;100956.59;5036333;28;45331;-59
2022/07/20 02:31:56;;;;;;;;;54.00;45.67;;;;;25.40;61.48;100982.13;5041313;28;45452;-59
2022/07/20 02:34:24;;;;;;;;;65.00;51.00;;;;;25.31;60.93;100966.81;5057029;28;45228;-61
2022/07/20 02:36:49;;;;;;;;;59.00;46.67;;;;;25.38;61.05;100989.59;5056160;28;46311;-61
2022/07/20 02:39:15;;;;;;;;;60.67;48.67;;;;;25.41;59.89;101005.63;5056353;28;45480;-59
2022/07/20 02:41:41;;;;;;;;;65.00;53.00;;;;;25.35;60.05;100995.41;5056848;28;45327;-60
2022/07/20 02:44:09;;;;;;;;;62.00;49.33;;;;;25.29;60.12;100997.78;5049981;28;45392;-60
2022/07/20 02:46:34;;;;;;;;;61.00;50.00;;;;;25.24;60.70;100988.44;5035357;28;45290;-60
2022/07/20 02:48:59;;;;;;;;;62.33;49.33;;;;;25.19;60.82;100993.53;5037929;28;45324;-61
2022/07/20 02:51:25;;;;;;;;;60.33;49.00;;;;;25.16;60.46;101005.63;5036338;28;45456;-60
2022/07/20 02:53:50;;;;;;;;;62.67;51.00;;;;;25.16;60.92;101008.34;5036223;28;45495;-59
2022/07/20 02:56:15;;;;;;;;;66.00;51.00;;;;;25.14;60.65;101007.69;5044686;28;45334;-61
2022/07/20 02:58:41;;;;;;;;;53.00;45.00;;;;;25.10;60.52;101017.19;5057441;28;45232;-60
2022/07/20 03:01:06;;;;;;;;;63.33;49.00;;;;;25.09;59.79;101028.25;5055951;28;45230;-61
2022/07/20 03:03:32;;;;;;;;;62.33;50.33;;;;;24.99;60.54;101048.25;5056379;28;45378;-59
2022/07/20 03:05:58;;;;;;;;;60.33;50.00;;;;;25.01;60.01;101069.06;5055857;28;46220;-60
2022/07/20 03:08:23;;;;;;;;;67.00;50.67;;;;;24.99;60.28;101093.69;5048438;28;45494;-59
2022/07/20 03:10:48;;;;;;;;;57.00;47.67;;;;;24.93;60.02;101102.53;5035688;28;45172;-60
2022/07/20 03:13:14;;;;;;;;;62.67;50.67;;;;;24.98;59.96;101108.31;5036049;28;45540;-60
2022/07/20 03:15:39;;;;;;;;;58.33;48.00;;;;;25.00;59.39;101106.25;5035663;28;45320;-60
2022/07/20 03:18:05;;;;;;;;;61.33;49.00;;;;;24.96;59.59;101099.47;5035526;28;45252;-59
2022/07/20 03:20:33;;;;;;;;;62.67;49.00;;;;;24.97;59.20;101112.03;5036486;28;45391;-59
2022/07/20 03:22:59;;;;;;;;;64.67;51.67;;;;;24.85;60.44;101099.78;5051224;28;45481;-59
2022/07/20 03:25:25;;;;;;;;;60.33;48.67;;;;;24.91;60.53;101099.97;5035408;28;45444;-61
2022/07/20 03:27:55;;;;;;;;;61.33;50.00;;;;;24.93;60.99;101094.34;5035769;28;45343;-60
2022/07/20 03:30:21;;;;;;;;;60.67;49.33;;;;;24.92;60.62;101092.66;5035633;28;45474;-60
2022/07/20 03:32:46;;;;;;;;;65.33;49.67;;;;;24.94;61.05;101104.22;5036453;28;45448;-59
2022/07/20 03:35:12;;;;;;;;;63.00;50.33;;;;;24.88;60.70;101084.00;5039450;28;45865;-62
2022/07/20 03:37:38;;;;;;;;;60.33;49.33;;;;;24.86;61.12;101087.88;5039375;28;45403;-60
2022/07/20 03:40:05;;;;;;;;;62.00;50.33;;;;;24.93;60.44;101103.38;5039227;28;45323;-62
2022/07/20 03:42:31;;;;;;;;;60.00;49.00;;;;;24.92;61.55;101093.50;5054983;28;45248;-60
2022/07/20 03:44:57;;;;;;;;;59.33;48.67;;;;;24.95;61.84;101097.75;5039139;28;45302;-59
2022/07/20 03:47:22;;;;;;;;;59.00;49.00;;;;;24.96;62.22;101099.47;5038854;28;45249;-59
2022/07/20 03:49:48;;;;;;;;;61.67;49.00;;;;;24.96;62.33;101102.19;5039055;28;45320;-60
2022/07/20 03:52:14;;;;;;;;;58.33;47.67;;;;;24.82;63.48;101106.41;5038288;28;45355;-60
2022/07/20 03:54:39;;;;;;;;;57.67;47.67;;;;;24.75;64.19;101124.41;5038652;28;45478;-59
2022/07/20 03:57:04;;;;;;;;;58.33;47.33;;;;;24.67;64.74;101116.22;5050038;28;45475;-60
2022/07/20 03:59:30;;;;;;;;;58.00;48.00;;;;;24.73;63.46;101133.72;5057026;28;45577;-59
2022/07/20 04:01:55;;;;;;;;;60.33;48.33;;;;;24.68;64.52;101161.44;5056811;28;45614;-59
2022/07/20 04:04:20;;;;;;;;;59.67;49.33;;;;;24.64;65.27;101181.81;5058906;28;47082;-60
2022/07/20 04:06:46;;;;;;;;;58.33;48.67;;;;;24.54;64.81;101181.94;5059066;28;45337;-60
2022/07/20 04:09:11;;;;;;;;;57.67;44.67;;;;;24.41;65.56;101170.66;5058471;28;45449;-59
2022/07/20 04:11:37;;;;;;;;;58.67;47.00;;;;;24.30;65.98;101162.78;5059145;28;45559;-59
2022/07/20 04:14:02;;;;;;;;;56.67;47.67;;;;;24.27;67.11;101144.91;5058504;28;45378;-59
2022/07/20 04:16:28;;;;;;;;;59.33;48.00;;;;;24.23;67.72;101134.53;5058601;28;45429;-60
2022/07/20 04:18:53;;;;;;;;;57.33;45.67;;;;;24.13;67.82;101126.47;5058738;28;46016;-60
2022/07/20 04:21:19;;;;;;;;;56.00;46.00;;;;;24.07;69.81;101125.22;5073620;28;45625;-59
2022/07/20 04:23:44;;;;;;;;;52.67;42.33;;;;;24.03;65.65;101129.28;5058862;28;45720;-59
2022/07/20 04:26:10;;;;;;;;;39.67;33.67;;;;;23.97;62.04;101121.78;5058475;28;45220;-60
2022/07/20 04:28:35;;;;;;;;;35.00;33.67;;;;;23.86;63.39;101084.03;5058489;28;45254;-59
2022/07/20 04:31:01;;;;;;;;;33.67;30.00;;;;;23.85;61.58;101076.91;5058509;28;45567;-59
2022/07/20 04:33:26;;;;;;;;;27.67;23.67;;;;;23.73;60.73;101061.88;5057393;28;46097;-60
2022/07/20 04:35:52;;;;;;;;;25.00;23.33;;;;;23.76;60.47;101088.72;5056360;28;45298;-60
2022/07/20 04:38:17;;;;;;;;;30.67;24.67;;;;;23.72;59.80;101073.75;5058760;28;45275;-60
2022/07/20 04:40:44;;;;;;;;;23.33;23.33;;;;;23.67;59.01;101070.66;5058764;28;45604;-60
2022/07/20 04:43:09;;;;;;;;;34.33;29.00;;;;;23.62;59.87;101060.28;5057970;28;47082;-59
2022/07/20 04:45:35;;;;;;;;;27.67;24.67;;;;;23.46;60.77;101030.25;5042226;28;45475;-59
2022/07/20 04:48:00;;;;;;;;;24.33;22.00;;;;;23.49;61.88;101033.50;5038934;28;45525;-60
2022/07/20 04:50:26;;;;;;;;;26.00;24.00;;;;;23.50;62.18;101028.94;5038384;28;45417;-59
2022/07/20 04:52:51;;;;;;;;;27.33;20.67;;;;;23.46;63.54;101036.53;5038254;28;46083;-59
2022/07/20 04:55:17;;;;;;;;;23.00;21.33;;;;;23.42;61.49;101037.00;5038371;28;45333;-60
2022/07/20 04:57:42;;;;;;;;;23.33;22.00;;;;;23.40;60.34;101055.31;5038381;28;45449;-59
2022/07/20 05:00:08;;;;;;;;;26.00;25.00;;;;;23.39;60.60;101067.19;5045772;28;45619;-59
2022/07/20 05:02:34;;;;;;;;;23.67;22.33;;;;;23.47;59.32;101106.13;5057922;28;45770;-59
2022/07/20 05:04:59;;;;;;;;;21.00;20.33;;;;;23.52;60.66;101143.63;5057652;28;45722;-59
2022/07/20 05:07:25;;;;;;;;;23.00;22.00;;;;;23.58;60.72;101166.66;5058000;28;45420;-60
2022/07/20 05:09:50;;;;;;;;;19.00;19.00;;;;;23.62;59.86;101147.16;5042222;28;45249;-62
2022/07/20 05:12:16;;;;;;;;;23.00;20.00;;;;;23.68;58.86;101162.81;5053301;28;45878;-59
2022/07/20 05:14:41;;;;;;;;;26.33;24.67;;;;;23.69;60.64;101169.94;5037750;28;45328;-60
2022/07/20 05:17:06;;;;;;;;;22.33;20.33;;;;;23.67;59.67;101138.53;5037667;28;45327;-59
2022/07/20 05:19:32;;;;;;;;;24.33;23.00;;;;;23.69;59.63;101128.34;5037855;28;45238;-60
2022/07/20 05:21:57;;;;;;;;;24.00;24.00;;;;;23.66;58.83;101125.97;5049947;28;46511;-61
2022/07/20 05:24:23;;;;;;;;;26.67;26.67;;;;;23.60;59.57;101115.75;5058858;28;45319;-60
2022/07/20 05:26:49;;;;;;;;;26.33;23.67;;;;;23.61;60.26;101101.16;5057067;28;45404;-59
2022/07/20 05:29:14;;;;;;;;;26.00;24.00;;;;;23.54;60.27;101052.03;5058278;28;45564;-59
2022/07/20 05:31:40;;;;;;;;;29.00;24.67;;;;;23.52;60.87;101030.47;5055647;28;46159;-59
2022/07/20 05:34:05;;;;;;;;;28.00;26.00;;;;;23.47;60.84;101027.38;5057614;27;45401;-60
2022/07/20 05:36:31;;;;;;;;;27.33;26.00;;;;;23.45;61.59;100999.56;5057645;28;45355;-59
2022/07/20 05:38:56;;;;;;;;;32.00;28.67;;;;;23.38;62.52;100992.19;5057771;28;45235;-61
2022/07/20 05:41:21;;;;;;;;;26.00;24.00;;;;;23.38;62.22;101041.06;5053274;28;45844;-58
2022/07/20 05:43:47;;;;;;;;;29.33;28.00;;;;;23.31;62.21;101049.00;5038429;28;45484;-62
2022/07/20 05:46:12;;;;;;;;;25.00;25.00;;;;;23.35;61.59;101077.50;5037565;28;45471;-61
2022/07/20 05:48:37;;;;;;;;;23.00;20.67;;;;;23.36;61.63;101092.78;5036532;28;45637;-61
2022/07/20 05:51:03;;;;;;;;;23.00;23.00;;;;;23.36;60.82;101091.94;5037463;28;45541;-63
2022/07/20 05:53:28;;;;;;;;;26.33;22.67;;;;;23.25;61.54;101065.88;5057280;28;45324;-63
2022/07/20 05:55:54;;;;;;;;;24.33;23.33;;;;;23.36;60.97;101084.63;5056563;28;45493;-57
2022/07/20 05:58:20;;;;;;;;;26.00;23.00;;;;;23.40;60.06;101105.03;5057545;28;45532;-69
2022/07/20 06:00:45;;;;;;;;;26.33;24.00;;;;;23.40;60.72;101109.59;5054792;28;46167;-64
2022/07/20 06:03:10;;;;;;;;;22.33;22.33;;;;;23.46;60.67;101123.41;5057152;28;45217;-65
2022/07/20 06:05:36;;;;;;;;;26.67;22.67;;;;;23.46;61.74;101109.00;5055743;28;45280;-64
2022/07/20 06:08:03;;;;;;;;;25.00;25.00;;;;;23.44;58.78;101106.44;5056985;28;45334;-63
2022/07/20 06:10:30;;;;;;;;;22.33;22.33;;;;;23.41;59.68;101095.00;5055704;28;46130;-66
2022/07/20 06:12:57;;;;;;;;;25.67;25.00;;;;;23.39;60.00;101076.19;5072354;28;45413;-61
2022/07/20 06:15:25;;;;;;;;;24.33;22.67;;;;;23.42;60.14;101070.44;5056971;28;45353;-56
2022/07/20 06:17:51;;;;;;;;;28.00;25.67;;;;;23.54;58.82;101092.75;5057225;28;45282;-64
2022/07/20 06:20:17;;;;;;;;;26.00;25.33;;;;;23.59;58.64;101093.19;5068336;27;46365;-63
2022/07/20 06:22:43;;;;;;;;;20.33;19.67;;;;;23.61;57.72;101106.59;5056104;28;45271;-64
2022/07/20 06:25:11;;;;;;;;;28.00;21.00;;;;;23.61;57.82;101122.88;5056735;28;45233;-61
2022/07/20 06:27:38;;;;;;;;;26.33;25.33;;;;;23.64;58.53;101141.56;5056761;28;45559;-60
2022/07/20 06:30:06;;;;;;;;;21.00;19.67;;;;;23.60;58.04;101159.19;5055725;28;46293;-59
2022/07/20 06:32:32;;;;;;;;;24.00;21.33;;;;;23.63;58.19;101165.16;5056255;28;45235;-59
2022/07/20 06:34:58;;;;;;;;;23.33;23.00;;;;;23.60;58.80;101199.94;5056464;28;45238;-59
2022/07/20 06:37:23;;;;;;;;;28.33;24.67;;;;;23.54;57.99;101210.34;5056833;28;45236;-55
2022/07/20 06:39:49;;;;;;;;;23.33;21.67;;;;;23.40;58.47;101199.19;5055312;28;46100;-57
2022/07/20 06:42:15;;;;;;;;;20.33;19.00;;;;;23.36;60.05;101187.78;5055070;28;45311;-65
2022/07/20 06:44:41;;;;;;;;;25.00;21.67;;;;;23.40;59.35;101196.47;5056173;28;45437;-56
2022/07/20 06:47:06;;;;;;;;;26.00;24.00;;;;;23.29;59.89;101200.25;5053711;28;45668;-58
2022/07/20 06:49:32;;;;;;;;;21.33;21.00;;;;;23.21;60.27;101206.47;5056131;28;45370;-60
2022/07/20 06:51:57;;;;;;;;;26.67;24.67;;;;;23.10;61.19;101182.25;5054660;28;45372;-60
2022/07/20 06:54:23;;;;;;;;;27.00;23.00;;;;;23.05;61.34;101175.56;5056416;28;45302;-60
2022/07/20 06:56:48;;;;;;;;;20.33;20.00;;;;;23.06;60.37;101171.88;5056354;28;45560;-61
2022/07/20 06:59:14;;;;;;;;;22.00;22.00;;;;;23.02;61.17;101165.00;5055930;28;45565;-60
2022/07/20 07:01:39;;;;;;;;;24.67;22.67;;;;;23.00;61.27;101156.19;5056451;28;45258;-59
2022/07/20 07:04:05;;;;;;;;;28.33;26.00;;;;;22.93;62.42;101151.38;5055375;28;45418;-60
2022/07/20 07:06:32;;;;;;;;;23.00;21.33;;;;;22.89;62.32;101155.38;5056224;28;45357;-60
2022/07/20 07:08:58;;;;;;;;;27.00;24.00;;;;;22.84;62.65;101159.56;5055229;28;46222;-59
2022/07/20 07:11:24;;;;;;;;;21.33;19.67;;;;;22.74;63.72;101150.59;5056876;28;45313;-60
2022/07/20 07:13:50;;;;;;;;;24.00;22.67;;;;;22.71;65.38;101150.91;5056334;28;45473;-60
2022/07/20 07:16:16;;;;;;;;;24.67;23.33;;;;;22.49;65.19;101133.16;5056379;28;46096;-60
2022/07/20 07:18:42;;;;;;;;;22.00;21.00;;;;;22.51;65.47;101155.56;5055862;28;45913;-59
2022/07/20 07:21:07;;;;;;;;;22.00;22.00;;;;;22.42;66.87;101173.59;5056022;28;45332;-59
2022/07/20 07:23:32;;;;;;;;;30.33;28.67;;;;;22.31;65.63;101176.47;5055589;28;46159;-61
2022/07/20 07:25:58;;;;;;;;;23.33;22.33;;;;;22.26;65.82;101176.91;5055911;28;45457;-60
2022/07/20 07:28:23;;;;;;;;;22.33;21.33;;;;;22.18;67.43;101165.09;5054718;28;48020;-61
2022/07/20 07:30:50;;;;;;;;;24.67;22.33;;;;;22.15;69.08;101160.84;5055802;28;45469;-59
2022/07/20 07:33:16;;;;;;;;;25.00;21.67;;;;;22.05;68.89;101127.47;5055996;28;45430;-61
2022/07/20 07:35:42;;;;;;;;;25.00;25.00;;;;;22.03;68.19;101153.84;5054796;28;45370;-60
2022/07/20 07:38:08;;;;;;;;;22.67;21.00;;;;;21.95;65.85;101184.34;5070744;28;48084;-59
2022/07/20 07:40:33;;;;;;;;;27.33;24.33;;;;;21.92;66.59;101194.63;5055602;28;45356;-59
2022/07/20 07:42:59;;;;;;;;;24.00;22.33;;;;;21.89;66.80;101174.13;5055451;28;45295;-58
2022/07/20 07:45:24;;;;;;;;;24.67;23.33;;;;;21.92;68.75;101175.69;5054911;28;45534;-60
2022/07/20 07:47:49;;;;;;;;;28.33;25.33;;;;;21.87;66.63;101186.06;5055334;28;46280;-59
2022/07/20 07:50:15;;;;;;;;;22.33;21.00;;;;;21.92;66.90;101203.63;5055532;28;45290;-60
2022/07/20 07:52:40;;;;;;;;;25.00;23.33;;;;;21.95;67.33;101213.28;5054925;28;45438;-61
2022/07/20 07:55:06;;;;;;;;;27.67;26.00;;;;;21.96;67.10;101218.56;5056276;28;45409;-59
2022/07/20 07:57:32;;;;;;;;;24.33;22.00;;;;;22.03;66.78;101233.25;5055661;28;47339;-59
2022/07/20 07:59:57;;;;;;;;;25.00;24.33;;;;;22.04;65.91;101205.16;5054461;28;45470;-59
2022/07/20 08:02:23;;;;;;;;;28.67;26.33;;;;;22.17;66.50;101221.16;5055696;28;45363;-60
2022/07/20 08:04:48;;;;;;;;;28.00;24.67;;;;;22.16;66.60;101216.72;5054333;28;45968;-60
2022/07/20 08:07:13;;;;;;;;;25.67;25.33;;;;;22.18;66.18;101219.28;5054949;28;46244;-60
2022/07/20 08:09:39;;;;;;;;;27.00;25.00;;;;;22.30;66.92;101213.56;5055215;28;45929;-60
2022/07/20 08:12:05;;;;;;;;;23.00;23.00;;;;;22.43;66.25;101202.38;5055374;28;45350;-60
2022/07/20 08:14:30;;;;;;;;;26.67;23.33;;;;;22.56;65.11;101212.91;5055555;28;45342;-60
2022/07/20 08:16:56;;;;;;;;;25.00;24.00;;;;;22.61;64.87;101208.72;5055506;28;46250;-59
2022/07/20 08:19:22;;;;;;;;;26.00;25.67;;;;;22.75;64.33;101222.81;5056080;28;45313;-59
2022/07/20 08:21:47;;;;;;;;;25.00;24.67;;;;;22.78;63.61;101211.66;5058782;28;45308;-60
2022/07/20 08:24:14;;;;;;;;;26.33;26.33;;;;;22.82;63.65;101227.50;5058935;28;45560;-60
2022/07/20 08:26:39;;;;;;;;;31.00;28.67;;;;;22.85;62.86;101235.34;5058441;28;46111;-60
2022/07/20 08:29:05;;;;;;;;;24.67;23.67;;;;;22.81;63.73;101227.66;5058454;28;45379;-59
2022/07/20 08:31:31;;;;;;;;;24.33;22.67;;;;;22.78;63.50;101220.63;5058683;28;45353;-60
2022/07/20 08:33:56;;;;;;;;;25.00;23.67;;;;;22.85;63.10;101219.09;5059209;28;45394;-58
2022/07/20 08:36:22;;;;;;;;;26.00;23.00;;;;;22.93;63.22;101207.50;5058256;28;46092;-61
2022/07/20 08:38:48;;;;;;;;;31.00;30.00;;;;;22.95;62.95;101214.47;5058326;28;45437;-60
2022/07/20 08:41:15;;;;;;;;;23.33;19.33;;;;;23.03;61.96;101235.41;5057478;28;45335;-58
2022/07/20 08:43:40;;;;;;;;;24.33;24.00;;;;;22.94;61.69;101228.19;5058127;28;45648;-59
2022/07/20 08:46:07;;;;;;;;;19.00;19.00;;;;;22.89;62.45;101231.31;5057137;28;46308;-60
2022/07/20 08:48:35;;;;;;;;;26.00;24.00;;;;;22.83;62.47;101221.09;5058507;28;45332;-59
2022/07/20 08:51:01;;;;;;;;;24.00;21.67;;;;;22.80;62.84;101232.22;5058625;28;45376;-59
2022/07/20 08:53:26;;;;;;;;;19.67;16.33;;;;;22.90;62.81;101243.88;5057246;28;45417;-60
2022/07/20 08:55:52;;;;;;;;;22.67;21.00;;;;;22.94;62.50;101244.47;5058237;28;45994;-60
2022/07/20 08:58:18;;;;;;;;;22.33;22.33;;;;;22.94;61.67;101247.16;5058068;28;45426;-59
2022/07/20 09:00:43;;;;;;;;;17.00;16.00;;;;;22.93;61.18;101240.91;5058092;28;45331;-61
2022/07/20 09:03:10;;;;;;;;;20.33;18.33;;;;;23.07;60.74;101241.41;5058794;28;45379;-60
2022/07/20 09:05:38;;;;;;;;;21.67;18.00;;;;;23.12;60.42;101236.34;5057927;28;46479;-59
2022/07/20 09:08:05;;;;;;;;;24.67;21.33;;;;;23.16;60.27;101237.75;5058397;28;45193;-59
2022/07/20 09:10:36;;;;;;;;;24.67;20.33;;;;;23.34;60.41;101238.66;5058827;28;45386;-63
2022/07/20 09:13:07;;;;;;;;;23.00;19.00;;;;;23.39;59.95;101233.59;5059060;28;45243;-60
2022/07/20 09:15:35;;;;;;;;;24.67;20.00;;;;;23.44;59.64;101236.75;5058293;28;46365;-59
2022/07/20 09:18:22;;;;;;;;;24.33;22.67;;;;;23.54;59.87;101225.78;5057876;28;45280;-59
2022/07/20 09:20:58;;;;;;;;;19.67;18.67;;;;;23.91;59.42;101205.78;5057749;28;45505;-64
2022/07/20 09:23:25;;;;;;;;;12.33;12.00;;;;;24.20;57.73;101205.47;5058118;28;45546;-60
2022/07/20 09:26:06;;;;;;;;;19.67;16.33;;;;;24.30;56.79;101217.13;5057604;28;45459;-63
2022/07/20 09:28:46;;;;;;;;;15.00;15.00;;;;;24.27;56.62;101214.72;5056270;28;45336;-61
2022/07/20 09:31:22;;;;;;;;;15.00;15.00;;;;;24.30;55.72;101218.00;5055280;28;45354;-59
2022/07/20 09:33:49;;;;;;;;;17.50;17.50;;;;;24.33;56.77;101214.09;5057861;28;45403;-59
2022/07/20 09:36:15;;;;;;;;;10.33;10.33;;;;;24.39;56.10;101210.75;5056994;28;45413;-59
2022/07/20 09:38:41;;;;;;;;;14.25;14.00;;;;;24.38;56.32;101217.19;5057539;28;45325;-60
2022/07/20 09:41:30;;;;;;;;;14.33;14.33;;;;;24.38;55.86;101209.91;5057828;28;45247;-61
2022/07/20 09:43:58;;;;;;;;;12.33;12.33;;;;;24.30;55.58;101222.56;5057622;28;45452;-61
2022/07/20 09:46:30;;;;;;;;;15.67;12.33;;;;;24.22;56.45;101230.63;5057088;28;45448;-60
2022/07/20 09:48:59;;;;;;;;;9.00;7.67;;;;;24.03;56.13;101232.53;5057242;28;45466;-59
2022/07/20 09:51:31;;;;;;;;;10.00;9.00;;;;;23.87;56.12;101237.84;5056973;28;45468;-60
2022/07/20 09:54:01;;;;;;;;;16.67;13.33;;;;;23.74;56.78;101243.69;5055962;28;45453;-60
2022/07/20 09:56:27;;;;;;;;;10.00;10.00;;;;;23.67;57.38;101245.28;5055533;28;45389;-60
2022/07/20 09:58:56;;;;;;;;;9.00;7.00;;;;;23.63;57.31;101253.91;5056995;28;45296;-60
2022/07/20 10:01:27;;;;;;;;;11.33;11.33;;;;;23.55;57.71;101250.06;5057110;28;45492;-61
2022/07/20 10:03:56;;;;;;;;;10.25;9.25;;;;;23.52;57.24;101258.53;5057242;28;45326;-60
2022/07/20 10:06:24;;;;;;;;;13.00;12.00;;;;;23.47;57.60;101263.56;5056972;28;46441;-60
2022/07/20 10:08:50;;;;;;;;;9.33;7.67;;;;;23.42;58.43;101259.59;5056955;28;45420;-60
2022/07/20 10:11:18;;;;;;;;;10.67;9.00;;;;;23.36;57.79;101257.50;5056927;28;45342;-60
2022/07/20 10:13:46;;;;;;;;;7.00;7.00;;;;;23.36;58.20;101260.22;5056965;28;45532;-60
2022/07/20 10:16:25;;;;;;;;;12.00;10.00;;;;;23.35;58.28;101259.38;5056562;28;45975;-60
2022/07/20 10:18:52;;;;;;;;;10.00;9.33;;;;;23.33;58.46;101244.25;5056727;28;45275;-59
2022/07/20 10:21:47;;;;;;;;;9.67;9.67;;;;;23.38;58.28;101241.91;5055670;28;45423;-60
2022/07/20 10:24:27;;;;;;;;;8.67;8.67;;;;;23.41;58.39;101255.16;5048589;28;45638;-60
2022/07/20 10:27:08;;;;;;;;;9.33;9.00;;;;;23.50;58.07;101262.41;5057053;28;46286;-61
2022/07/20 10:29:42;;;;;;;;;13.00;13.00;;;;;23.51;57.96;101262.25;5057557;28;45401;-62
2022/07/20 10:32:23;;;;;;;;;10.33;9.00;;;;;23.53;58.43;101271.09;5057063;28;45256;-61
2022/07/20 10:34:52;;;;;;;;;10.67;10.67;;;;;23.48;58.29;101268.00;5056797;28;45409;-60
2022/07/20 10:37:23;;;;;;;;;10.50;9.75;;;;;23.45;58.20;101260.16;5056144;28;46210;-59
2022/07/20 10:39:50;;;;;;;;;10.00;9.00;;;;;23.45;58.47;101254.72;5056407;28;45374;-59
2022/07/20 10:42:34;;;;;;;;;11.33;10.67;;;;;23.45;58.20;101245.72;5055000;28;45353;-60
2022/07/20 10:45:19;;;;;;;;;10.00;9.00;;;;;23.44;58.24;101249.47;5056864;28;45570;-60
2022/07/20 10:47:48;;;;;;;;;10.00;9.00;;;;;23.41;58.22;101253.31;5056023;28;45619;-62
2022/07/20 10:50:36;;;;;;;;;9.00;8.00;;;;;23.44;58.14;101253.03;5056390;28;45291;-60
2022/07/20 10:53:11;;;;;;;;;10.50;9.75;;;;;23.44;57.90;101260.31;5056360;28;45433;-60
2022/07/20 10:55:37;;;;;;;;;9.67;9.67;;;;;23.38;57.84;101255.47;5055507;28;45559;-61
2022/07/20 10:58:21;;;;;;;;;6.00;6.00;;;;;23.39;57.79;101243.63;5056618;28;47321;-60
2022/07/20 11:00:53;;;;;;;;;8.33;8.00;;;;;23.31;58.09;101247.13;5056214;28;45390;-60
2022/07/20 11:03:25;;;;;;;;;13.00;10.50;;;;;23.25;58.89;101253.13;5056943;28;45367;-60
2022/07/20 11:06:15;;;;;;;;;9.33;9.33;;;;;23.28;58.93;101274.53;5056397;28;45617;-60
2022/07/20 11:08:48;;;;;;;;;8.00;8.00;;;;;23.26;58.49;101281.97;5050487;28;46567;-60
2022/07/20 11:11:19;;;;;;;;;9.00;8.67;;;;;23.28;58.99;101285.38;5056452;28;45367;-60